Time;durP1;ratioP1;P1;durP2;ratioP2;P2;SDS_P1;SDS_P2;PMS_P1;PMS_P2;Temp;Humidity;BMP_temperature;BMP_pressure;BME280_temperature;BME280_humidity;BME280_pressure;Samples;Min_cycle;Max_cycle;Signal;HPM_P1;HPM_P2
2021/04/28 00:02:07;;;;;;;19.50;7.00;;;16.20;99.90;;;;;;6339697;22;20002;-81
2021/04/28 00:04:33;;;;;;;25.17;7.53;;;16.20;99.90;;;;;;6339881;22;20023;-83
2021/04/28 00:07:02;;;;;;;18.73;7.22;;;16.30;99.90;;;;;;6340402;22;20021;-80
2021/04/28 00:09:29;;;;;;;22.83;7.72;;;16.20;99.90;;;;;;6339501;22;20083;-83
2021/04/28 00:11:57;;;;;;;18.85;6.95;;;16.30;99.90;;;;;;6339510;22;20448;-83
2021/04/28 00:14:23;;;;;;;23.05;7.30;;;16.30;99.90;;;;;;6339287;22;20009;-82
2021/04/28 00:16:49;;;;;;;27.52;8.45;;;16.30;99.90;;;;;;6339553;22;20519;-80
2021/04/28 00:19:15;;;;;;;25.30;8.55;;;16.30;99.90;;;;;;6339460;22;20075;-78
2021/04/28 00:21:42;;;;;;;28.13;7.28;;;16.30;99.90;;;;;;6339534;22;20003;-78
2021/04/28 00:24:09;;;;;;;18.92;7.63;;;16.30;99.90;;;;;;6339683;22;20006;-83
2021/04/28 00:26:35;;;;;;;23.70;7.15;;;16.30;99.90;;;;;;6339331;22;20006;-83
2021/04/28 00:29:01;;;;;;;17.98;7.25;;;16.30;99.90;;;;;;6339517;22;20333;-83
2021/04/28 00:31:27;;;;;;;16.75;7.47;;;16.30;99.90;;;;;;6339255;22;20030;-82
2021/04/28 00:33:53;;;;;;;25.23;8.25;;;16.20;99.90;;;;;;6339402;22;20009;-83
2021/04/28 00:36:19;;;;;;;25.37;7.97;;;16.20;99.90;;;;;;6311728;22;20014;-79
2021/04/28 00:38:45;;;;;;;27.80;7.85;;;16.10;99.90;;;;;;6339446;22;20420;-78
2021/04/28 00:41:11;;;;;;;18.63;7.25;;;16.10;99.90;;;;;;6339583;22;20007;-82
2021/04/28 00:43:38;;;;;;;28.42;8.15;;;16.10;99.90;;;;;;6339256;22;20003;-83
2021/04/28 00:46:05;;;;;;;20.65;8.10;;;16.00;99.90;;;;;;6339226;22;20007;-78
2021/04/28 00:48:31;;;;;;;21.95;7.90;;;16.10;99.90;;;;;;6342463;22;20022;-81
2021/04/28 00:50:58;;;;;;;24.08;8.32;;;16.10;99.90;;;;;;6347852;22;20017;-82
2021/04/28 00:53:25;;;;;;;22.08;8.48;;;16.10;99.90;;;;;;6339353;22;20003;-83
2021/04/28 00:55:53;;;;;;;19.80;7.38;;;16.10;99.90;;;;;;6339173;22;20441;-83
2021/04/28 00:58:21;;;;;;;14.23;6.65;;;16.10;99.90;;;;;;6339235;22;20011;-81
2021/04/28 01:00:48;;;;;;;21.85;7.65;;;16.00;99.90;;;;;;6339398;22;20489;-83
2021/04/28 01:03:14;;;;;;;21.88;9.55;;;16.00;99.90;;;;;;6339091;22;20021;-78
2021/04/28 01:05:40;;;;;;;22.13;8.52;;;16.00;99.90;;;;;;6339309;22;20003;-79
2021/04/28 01:08:07;;;;;;;19.60;8.35;;;16.00;99.90;;;;;;6311569;22;20378;-84
2021/04/28 01:10:36;;;;;;;18.95;6.80;;;16.00;99.90;;;;;;6339192;22;20014;-78
2021/04/28 01:13:05;;;;;;;21.77;7.25;;;16.00;99.90;;;;;;6311409;22;20079;-78
2021/04/28 01:15:34;;;;;;;19.55;7.03;;;16.00;99.90;;;;;;6339167;22;20016;-78
2021/04/28 01:18:07;;;;;;;24.60;8.13;;;16.00;99.90;;;;;;6311346;22;20332;-81
2021/04/28 01:20:37;;;;;;;14.20;6.50;;;16.00;99.90;;;;;;6339059;22;19999;-80
2021/04/28 01:23:06;;;;;;;21.33;7.93;;;16.00;99.90;;;;;;6311368;22;20056;-83
2021/04/28 01:25:32;;;;;;;24.40;9.23;;;16.00;99.90;;;;;;6338762;22;20003;-83
2021/04/28 01:28:12;;;;;;;27.42;9.23;;;16.00;99.90;;;;;;6311232;22;20022;-83
2021/04/28 01:31:00;;;;;;;25.52;9.30;;;16.00;99.90;;;;;;6311347;22;20014;-78
2021/04/28 01:33:39;;;;;;;27.95;8.50;;;16.00;99.90;;;;;;6311120;22;20003;-81
2021/04/28 01:36:13;;;;;;;28.20;8.98;;;16.00;99.90;;;;;;6338976;22;20022;-83
2021/04/28 01:38:43;;;;;;;26.07;8.20;;;16.00;99.90;;;;;;6311330;22;20007;-81
2021/04/28 01:41:09;;;;;;;30.15;9.43;;;16.00;99.90;;;;;;6311124;22;20248;-83
2021/04/28 01:43:41;;;;;;;26.15;9.05;;;16.00;99.90;;;;;;6338797;22;20009;-80
2021/04/28 01:46:09;;;;;;;24.85;7.65;;;16.00;99.90;;;;;;6338772;22;20337;-83
2021/04/28 01:48:38;;;;;;;25.65;8.18;;;16.00;99.90;;;;;;6338745;22;20023;-79
2021/04/28 01:51:05;;;;;;;27.67;9.70;;;16.00;99.90;;;;;;6311002;22;20098;-83
2021/04/28 01:53:32;;;;;;;25.00;9.13;;;16.00;99.90;;;;;;6310896;22;20003;-79
2021/04/28 01:55:59;;;;;;;18.35;7.35;;;16.00;99.90;;;;;;6310866;22;20319;-83
2021/04/28 01:58:48;;;;;;;25.00;8.32;;;16.00;99.90;;;;;;6305725;22;20088;-83
2021/04/28 02:01:22;;;;;;;22.90;8.32;;;16.00;99.90;;;;;;6306038;22;20057;-78
2021/04/28 02:03:52;;;;;;;22.52;8.35;;;16.00;99.90;;;;;;6313756;22;20026;-79
2021/04/28 02:06:19;;;;;;;23.35;8.77;;;16.00;99.90;;;;;;6309870;22;19999;-82
2021/04/28 02:08:45;;;;;;;24.30;8.10;;;16.00;99.90;;;;;;6307227;22;20303;-83
2021/04/28 02:11:11;;;;;;;23.33;8.60;;;16.10;99.90;;;;;;6305655;22;20003;-79
2021/04/28 02:13:43;;;;;;;25.80;8.35;;;16.10;99.90;;;;;;6305580;22;20404;-83
2021/04/28 02:16:21;;;;;;;23.40;7.50;;;16.00;99.90;;;;;;6305434;22;20018;-80
2021/04/28 02:18:49;;;;;;;27.33;7.95;;;16.00;99.90;;;;;;6307564;22;20003;-82
2021/04/28 02:21:16;;;;;;;25.35;9.07;;;16.00;99.90;;;;;;6305496;22;20086;-78
2021/04/28 02:23:57;;;;;;;24.27;8.55;;;16.00;99.90;;;;;;6305465;22;20518;-78
2021/04/28 02:26:24;;;;;;;21.80;7.50;;;16.00;99.90;;;;;;6307409;22;19999;-82
2021/04/28 02:28:50;;;;;;;30.17;9.55;;;16.00;99.90;;;;;;6307103;22;20346;-82
2021/04/28 02:31:16;;;;;;;19.10;7.78;;;16.00;99.90;;;;;;6305525;22;20078;-79
2021/04/28 02:33:47;;;;;;;24.88;9.07;;;16.00;99.90;;;;;;6305462;22;20007;-78
2021/04/28 02:36:50;;;;;;;33.85;8.55;;;16.00;99.90;;;;;;6306838;22;20042;-82
2021/04/28 02:39:51;;;;;;;21.30;8.13;;;16.00;99.90;;;;;;6283101;22;20015;-79
2021/04/28 02:42:18;;;;;;;17.40;7.93;;;16.00;99.90;;;;;;6306936;22;20421;-83
2021/04/28 02:44:47;;;;;;;23.50;7.32;;;16.00;99.90;;;;;;6305385;22;19999;-78
2021/04/28 02:47:15;;;;;;;18.08;7.72;;;16.00;99.90;;;;;;6307445;22;20333;-83
2021/04/28 02:49:44;;;;;;;29.85;9.73;;;16.00;99.90;;;;;;6305523;22;20007;-79
2021/04/28 02:52:29;;;;;;;28.92;7.60;;;16.00;99.90;;;;;;6305262;22;20014;-80
2021/04/28 02:54:56;;;;;;;21.75;7.95;;;16.00;99.90;;;;;;6305264;22;20015;-78
2021/04/28 02:57:22;;;;;;;28.58;7.93;;;16.00;99.90;;;;;;6307065;22;20064;-83
2021/04/28 02:59:51;;;;;;;20.30;7.30;;;15.90;99.90;;;;;;6331208;22;20015;-78
2021/04/28 03:02:20;;;;;;;27.13;8.50;;;16.00;99.90;;;;;;6338404;22;20055;-83
2021/04/28 03:04:50;;;;;;;25.35;8.18;;;15.90;99.90;;;;;;6310707;22;20034;-82
2021/04/28 03:07:46;;;;;;;16.23;7.38;;;15.90;99.90;;;;;;6200667;22;20475;-79
2021/04/28 03:10:14;;;;;;;24.63;6.97;;;15.90;99.90;;;;;;6310451;22;20011;-82
2021/04/28 03:12:40;;;;;;;31.20;8.50;;;16.00;99.90;;;;;;6338663;22;20081;-82
2021/04/28 03:15:10;;;;;;;33.67;8.75;;;15.90;99.90;;;;;;6284688;22;20075;-78
2021/04/28 03:17:37;;;;;;;28.67;8.82;;;15.90;99.90;;;;;;6338844;22;20081;-83
2021/04/28 03:20:08;;;;;;;24.38;8.10;;;15.90;99.90;;;;;;6312239;22;20010;-78
2021/04/28 03:22:40;;;;;;;25.60;8.65;;;15.90;99.90;;;;;;6310335;22;20306;-83
2021/04/28 03:25:08;;;;;;;21.65;8.13;;;15.90;99.90;;;;;;6310335;22;20006;-83
2021/04/28 03:27:36;;;;;;;23.95;7.78;;;15.80;99.90;;;;;;6310219;22;20341;-83
2021/04/28 03:30:04;;;;;;;19.02;6.20;;;15.80;99.90;;;;;;6310389;22;20064;-83
2021/04/28 03:32:30;;;;;;;26.20;8.13;;;15.80;99.90;;;;;;6310377;22;20333;-83
2021/04/28 03:35:16;;;;;;;20.95;7.68;;;15.90;99.90;;;;;;6336984;22;20011;-79
2021/04/28 03:37:47;;;;;;;21.30;7.30;;;15.90;99.90;;;;;;6310156;22;20090;-81
2021/04/28 03:40:13;;;;;;;18.67;6.93;;;15.80;99.90;;;;;;6337932;22;20014;-82
2021/04/28 03:42:39;;;;;;;22.70;7.22;;;15.90;99.90;;;;;;6337826;22;20625;-78
2021/04/28 03:45:06;;;;;;;22.55;8.02;;;15.90;99.90;;;;;;6310261;22;20052;-82
2021/04/28 03:47:33;;;;;;;23.83;7.60;;;15.90;99.90;;;;;;6310144;22;20002;-78
2021/04/28 03:49:59;;;;;;;13.52;6.43;;;15.90;99.90;;;;;;6310347;22;20010;-81
2021/04/28 03:52:26;;;;;;;22.25;6.65;;;16.00;99.90;;;;;;6309995;22;19999;-82
2021/04/28 03:55:18;;;;;;;17.83;7.00;;;16.00;99.90;;;;;;6333576;22;20380;-82
2021/04/28 03:57:44;;;;;;;21.70;6.47;;;16.00;99.90;;;;;;6337787;22;20052;-83
2021/04/28 04:00:10;;;;;;;22.77;8.63;;;16.00;99.90;;;;;;6310113;22;20015;-82
2021/04/28 04:02:42;;;;;;;23.77;6.95;;;16.00;99.90;;;;;;6338057;22;20011;-81
2021/04/28 04:05:34;;;;;;;25.13;8.55;;;16.00;99.90;;;;;;6290030;22;20338;-83
2021/04/28 04:08:06;;;;;;;22.17;7.13;;;16.00;99.90;;;;;;6310166;22;20003;-82
2021/04/28 04:10:45;;;;;;;17.25;6.13;;;16.10;99.90;;;;;;6310110;22;20006;-83
2021/04/28 04:13:12;;;;;;;17.83;6.38;;;16.10;99.90;;;;;;6310020;22;20038;-83
2021/04/28 04:15:38;;;;;;;23.50;6.57;;;16.00;99.90;;;;;;6310184;22;20094;-82
2021/04/28 04:18:07;;;;;;;19.35;5.75;;;16.10;99.90;;;;;;6309991;22;19999;-82
2021/04/28 04:20:53;;;;;;;14.68;5.70;;;16.10;99.90;;;;;;6336930;22;20052;-84
2021/04/28 04:23:26;;;;;;;14.55;5.95;;;16.10;99.90;;;;;;6310105;22;20077;-81
2021/04/28 04:26:11;;;;;;;26.33;6.35;;;16.10;99.90;;;;;;6310355;22;20444;-76
2021/04/28 04:29:02;;;;;;;19.92;6.38;;;16.10;99.90;;;;;;6281923;22;20007;-81
2021/04/28 04:31:37;;;;;;;20.15;6.25;;;16.20;99.90;;;;;;6312401;22;20332;-77
2021/04/28 04:34:22;;;;;;;11.85;5.47;;;16.20;99.90;;;;;;6341345;22;20014;-77
2021/04/28 04:37:06;;;;;;;21.67;6.35;;;16.20;99.90;;;;;;6339734;22;20025;-81
2021/04/28 04:39:50;;;;;;;20.73;6.50;;;16.20;99.90;;;;;;6340225;22;20036;-77
2021/04/28 04:42:38;;;;;;;16.80;5.93;;;16.20;99.90;;;;;;6311920;22;20098;-82
2021/04/28 04:45:23;;;;;;;22.75;7.30;;;16.30;99.90;;;;;;6339291;22;20018;-77
2021/04/28 04:47:49;;;;;;;16.30;6.47;;;16.30;99.90;;;;;;6312137;22;20042;-82
2021/04/28 04:50:15;;;;;;;18.23;6.73;;;16.30;99.90;;;;;;6339297;22;20267;-77
2021/04/28 04:52:42;;;;;;;13.63;5.93;;;16.30;99.90;;;;;;6339453;22;20240;-76
2021/04/28 04:55:09;;;;;;;19.50;6.55;;;16.30;99.90;;;;;;6339017;22;20041;-76
2021/04/28 04:57:36;;;;;;;17.88;6.65;;;16.30;99.90;;;;;;6312071;22;20375;-81
2021/04/28 05:00:06;;;;;;;16.13;6.75;;;16.40;99.90;;;;;;6339031;22;20396;-82
2021/04/28 05:02:32;;;;;;;11.82;5.60;;;16.50;99.90;;;;;;6339288;22;20060;-81
2021/04/28 05:04:58;;;;;;;14.57;6.28;;;16.50;99.90;;;;;;6339098;22;20002;-77
2021/04/28 05:07:24;;;;;;;16.17;6.37;;;16.50;99.90;;;;;;6338990;22;19999;-76
2021/04/28 05:09:51;;;;;;;24.30;7.00;;;16.60;99.90;;;;;;6339416;22;20217;-77
2021/04/28 05:12:17;;;;;;;14.65;6.05;;;16.60;99.90;;;;;;6339026;22;19999;-81
2021/04/28 05:14:43;;;;;;;18.98;5.63;;;16.70;99.90;;;;;;6338905;22;20003;-82
2021/04/28 05:17:09;;;;;;;18.42;5.55;;;16.70;99.90;;;;;;6339072;22;20021;-76
2021/04/28 05:19:35;;;;;;;16.00;5.27;;;16.70;99.90;;;;;;6338899;22;19999;-82
2021/04/28 05:22:01;;;;;;;29.15;7.20;;;16.70;99.90;;;;;;6339094;22;20037;-81
2021/04/28 05:24:28;;;;;;;19.65;6.65;;;16.70;99.90;;;;;;6311645;22;20003;-78
2021/04/28 05:27:07;;;;;;;14.38;4.97;;;16.70;99.90;;;;;;6339235;22;20013;-82
2021/04/28 05:29:33;;;;;;;16.60;6.13;;;16.70;99.90;;;;;;6339171;22;20002;-77
2021/04/28 05:31:59;;;;;;;18.80;5.13;;;16.80;99.90;;;;;;6339199;22;20325;-82
2021/04/28 05:34:25;;;;;;;16.70;6.97;;;16.80;99.90;;;;;;6310999;22;20237;-82
2021/04/28 05:36:51;;;;;;;15.35;5.57;;;16.80;99.90;;;;;;6338897;22;20007;-82
2021/04/28 05:39:17;;;;;;;22.20;6.28;;;16.90;99.90;;;;;;6338621;22;20445;-80
2021/04/28 05:41:43;;;;;;;18.73;6.15;;;17.00;99.90;;;;;;6338849;22;20006;-77
2021/04/28 05:44:09;;;;;;;16.45;5.50;;;17.00;99.90;;;;;;6338933;22;20053;-77
2021/04/28 05:46:37;;;;;;;28.83;6.90;;;17.10;99.90;;;;;;6339742;22;19995;-80
2021/04/28 05:49:04;;;;;;;11.85;4.63;;;17.20;99.90;;;;;;6339234;22;20014;-80
2021/04/28 05:51:30;;;;;;;14.25;5.25;;;17.20;99.90;;;;;;6338798;22;20003;-78
2021/04/28 05:53:57;;;;;;;10.85;5.05;;;17.30;99.90;;;;;;6338934;22;20329;-82
2021/04/28 05:56:23;;;;;;;10.50;5.32;;;17.40;99.90;;;;;;6338585;22;20014;-82
2021/04/28 05:58:49;;;;;;;17.83;5.10;;;17.40;99.90;;;;;;6338544;22;20437;-81
2021/04/28 06:01:15;;;;;;;15.67;6.10;;;17.40;99.90;;;;;;6338818;22;20013;-82
2021/04/28 06:03:41;;;;;;;9.50;3.95;;;17.50;99.90;;;;;;6338791;22;20217;-79
2021/04/28 06:06:08;;;;;;;16.40;6.53;;;17.50;99.90;;;;;;6338547;22;20006;-81
2021/04/28 06:08:35;;;;;;;14.82;4.78;;;17.50;99.90;;;;;;6338545;22;19999;-82
2021/04/28 06:11:01;;;;;;;13.55;5.13;;;17.50;99.90;;;;;;6338698;22;20007;-82
2021/04/28 06:13:27;;;;;;;13.02;5.47;;;17.50;99.90;;;;;;6338536;22;20006;-80
2021/04/28 06:15:53;;;;;;;16.75;5.32;;;17.50;99.90;;;;;;6338398;22;20010;-78
2021/04/28 06:18:19;;;;;;;15.40;5.47;;;17.60;99.90;;;;;;6338789;22;20069;-80
2021/04/28 06:20:45;;;;;;;10.85;4.15;;;17.60;99.90;;;;;;6310862;22;20013;-76
2021/04/28 06:23:11;;;;;;;20.15;4.72;;;17.70;99.90;;;;;;6338494;22;20022;-82
2021/04/28 06:25:37;;;;;;;19.25;4.65;;;17.70;99.90;;;;;;6338438;22;20010;-81
2021/04/28 06:28:03;;;;;;;15.82;4.68;;;17.70;99.90;;;;;;6338442;22;20003;-78
2021/04/28 06:30:29;;;;;;;22.80;6.13;;;17.80;99.90;;;;;;6338770;22;20078;-77
2021/04/28 06:32:55;;;;;;;17.33;5.40;;;17.80;99.90;;;;;;6338521;22;20003;-80
2021/04/28 06:35:21;;;;;;;14.27;4.20;;;17.90;99.90;;;;;;6338157;22;20021;-82
2021/04/28 06:37:47;;;;;;;18.70;4.97;;;18.00;99.90;;;;;;6338474;22;20529;-78
2021/04/28 06:40:13;;;;;;;20.25;5.65;;;18.00;99.90;;;;;;6338378;22;20053;-83
2021/04/28 06:42:40;;;;;;;25.35;6.28;;;18.00;99.90;;;;;;6338571;22;20011;-81
2021/04/28 06:45:07;;;;;;;19.35;5.47;;;18.00;99.90;;;;;;6338258;22;19995;-77
2021/04/28 06:47:33;;;;;;;23.23;5.47;;;18.00;99.90;;;;;;6338797;22;20085;-77
2021/04/28 06:49:59;;;;;;;11.57;5.25;;;18.10;99.90;;;;;;6338265;22;20087;-81
2021/04/28 06:52:25;;;;;;;27.30;6.30;;;18.10;99.90;;;;;;6338275;22;19999;-83
2021/04/28 06:54:51;;;;;;;13.20;5.22;;;18.10;99.90;;;;;;6338073;22;20006;-77
2021/04/28 06:57:17;;;;;;;16.80;5.60;;;18.10;99.90;;;;;;6338010;22;20015;-82
2021/04/28 06:59:44;;;;;;;21.48;4.82;;;18.10;99.90;;;;;;6338002;22;20006;-77
2021/04/28 07:02:09;;;;;;;16.95;6.05;;;18.10;99.90;;;;;;6316088;22;20015;-82
2021/04/28 07:04:35;;;;;;;23.63;5.68;;;18.10;99.90;;;;;;6338403;22;20025;-83
2021/04/28 07:07:01;;;;;;;12.67;4.53;;;18.20;99.90;;;;;;6338434;22;19998;-81
2021/04/28 07:09:27;;;;;;;15.13;5.35;;;18.20;99.90;;;;;;6338130;22;20225;-83
2021/04/28 07:11:53;;;;;;;22.90;6.40;;;18.30;99.90;;;;;;6310314;22;20013;-82
2021/04/28 07:14:19;;;;;;;23.97;6.13;;;18.30;99.90;;;;;;6338120;22;20447;-77
2021/04/28 07:16:45;;;;;;;22.73;5.63;;;18.30;99.90;;;;;;6337991;22;20276;-78
2021/04/28 07:19:11;;;;;;;17.60;5.78;;;18.20;99.90;;;;;;6338191;22;20074;-78
2021/04/28 07:21:38;;;;;;;17.02;6.03;;;18.30;99.90;;;;;;6338053;22;19999;-83
2021/04/28 07:24:04;;;;;;;19.85;5.80;;;18.20;99.90;;;;;;6338030;22;20467;-82
2021/04/28 07:26:31;;;;;;;20.30;5.63;;;18.20;99.90;;;;;;6337934;22;20003;-82
2021/04/28 07:28:57;;;;;;;20.95;5.20;;;18.20;99.90;;;;;;6337965;22;20002;-83
2021/04/28 07:31:24;;;;;;;20.10;6.82;;;18.20;99.90;;;;;;6338082;22;20018;-83
2021/04/28 07:33:50;;;;;;;19.27;5.05;;;18.30;99.90;;;;;;6338160;22;20006;-77
2021/04/28 07:36:16;;;;;;;16.90;5.05;;;18.30;99.90;;;;;;6310353;22;20015;-82
2021/04/28 07:38:43;;;;;;;17.17;5.72;;;18.40;99.90;;;;;;6338343;22;20262;-78
2021/04/28 07:41:09;;;;;;;21.63;6.13;;;18.50;99.90;;;;;;6337911;22;20003;-77
2021/04/28 07:43:35;;;;;;;18.10;5.35;;;18.60;99.90;;;;;;6310156;22;20310;-77
2021/04/28 07:46:01;;;;;;;25.83;5.95;;;18.70;99.90;;;;;;6337958;22;20003;-78
2021/04/28 07:48:27;;;;;;;22.75;6.30;;;18.80;99.90;;;;;;6337995;22;20007;-83
2021/04/28 07:50:54;;;;;;;25.98;7.10;;;18.80;99.90;;;;;;6337788;22;20541;-78
2021/04/28 07:53:21;;;;;;;23.40;6.50;;;18.80;99.90;;;;;;6337745;22;20007;-80
2021/04/28 07:55:47;;;;;;;20.80;5.72;;;18.70;99.90;;;;;;6337777;22;20473;-80
2021/04/28 07:58:15;;;;;;;23.45;5.82;;;18.80;99.90;;;;;;6337615;22;20074;-79
2021/04/28 08:00:41;;;;;;;26.45;5.03;;;18.90;99.90;;;;;;6337913;22;20452;-78
2021/04/28 08:03:08;;;;;;;20.77;6.25;;;19.10;99.90;;;;;;6339904;22;20436;-77
2021/04/28 08:05:34;;;;;;;19.75;5.32;;;19.20;99.90;;;;;;6340089;22;20069;-77
2021/04/28 08:08:00;;;;;;;14.63;4.85;;;19.40;99.90;;;;;;6339779;22;20005;-77
2021/04/28 08:10:27;;;;;;;23.38;5.85;;;19.40;99.90;;;;;;6339516;22;20074;-82
2021/04/28 08:12:53;;;;;;;28.08;6.60;;;19.40;99.90;;;;;;6339595;22;20017;-83
2021/04/28 08:15:19;;;;;;;17.25;4.75;;;19.50;99.90;;;;;;6342877;22;20011;-82
2021/04/28 08:17:45;;;;;;;22.95;6.07;;;19.50;99.90;;;;;;6341736;22;20003;-77
2021/04/28 08:20:13;;;;;;;14.23;5.22;;;19.40;99.90;;;;;;6339690;22;20007;-77
2021/04/28 08:22:40;;;;;;;12.80;5.32;;;19.50;99.90;;;;;;6311915;22;20341;-82
2021/04/28 08:25:10;;;;;;;23.55;8.40;;;19.50;99.90;;;;;;6339336;22;20005;-77
2021/04/28 08:27:36;;;;;;;19.65;5.70;;;19.40;99.90;;;;;;6339373;22;20013;-77
2021/04/28 08:30:08;;;;;;;18.23;5.43;;;19.50;99.90;;;;;;6339504;22;20022;-80
2021/04/28 08:32:34;;;;;;;23.10;5.60;;;19.70;99.90;;;;;;6339393;22;20013;-77
2021/04/28 08:35:00;;;;;;;21.85;5.78;;;19.70;99.90;;;;;;6339257;22;20052;-79
2021/04/28 08:37:27;;;;;;;24.98;5.00;;;19.80;99.90;;;;;;6339455;22;20079;-83
2021/04/28 08:39:53;;;;;;;15.93;6.10;;;19.70;99.90;;;;;;6339490;22;20492;-82
2021/04/28 08:42:19;;;;;;;15.43;5.22;;;19.70;99.90;;;;;;6339167;22;20029;-81
2021/04/28 08:44:45;;;;;;;21.27;5.57;;;19.80;99.90;;;;;;6339355;22;20056;-77
2021/04/28 08:47:14;;;;;;;14.55;5.20;;;19.80;99.90;;;;;;6339269;22;20060;-78
2021/04/28 08:49:40;;;;;;;22.05;5.38;;;20.00;99.90;;;;;;6311631;22;20010;-80
2021/04/28 08:52:07;;;;;;;20.65;5.78;;;20.20;99.90;;;;;;6339219;22;20459;-83
2021/04/28 08:54:34;;;;;;;19.58;7.25;;;20.20;99.90;;;;;;6338996;22;20521;-77
2021/04/28 08:57:00;;;;;;;18.77;6.43;;;20.30;99.90;;;;;;6339340;22;20029;-83
2021/04/28 08:59:26;;;;;;;19.75;5.18;;;20.30;99.90;;;;;;6339005;22;20017;-80
2021/04/28 09:01:52;;;;;;;19.90;5.53;;;20.40;99.90;;;;;;6339100;22;19999;-77
2021/04/28 09:04:23;;;;;;;16.10;5.57;;;20.60;99.90;;;;;;6339036;22;20010;-80
2021/04/28 09:06:51;;;;;;;28.85;6.15;;;20.80;99.90;;;;;;6339521;22;20044;-83
2021/04/28 09:09:19;;;;;;;17.88;5.70;;;21.00;99.90;;;;;;6339302;22;20002;-81
2021/04/28 09:11:54;;;;;;;21.83;6.57;;;21.10;99.90;;;;;;6311344;22;20507;-83
2021/04/28 09:14:32;;;;;;;19.42;5.90;;;21.20;99.90;;;;;;6338992;22;20006;-81
2021/04/28 09:17:04;;;;;;;24.95;8.30;;;21.30;99.90;;;;;;6339083;22;20007;-78
2021/04/28 09:20:21;;;;;;;23.10;6.07;;;21.30;99.90;;;;;;6229133;22;20009;-82
2021/04/28 09:23:28;;;;;;;14.70;4.70;;;21.30;99.90;;;;;;6339115;22;20049;-83
2021/04/28 09:26:17;;;;;;;14.68;5.05;;;21.40;99.90;;;;;;6275291;22;20011;-83
2021/04/28 09:28:52;;;;;;;16.73;4.93;;;21.50;99.90;;;;;;6341250;22;20056;-83
2021/04/28 09:31:19;;;;;;;16.13;6.15;;;21.60;99.90;;;;;;6344202;22;20051;-77
2021/04/28 09:33:46;;;;;;;17.88;6.97;;;21.40;99.90;;;;;;6339196;22;20277;-84
2021/04/28 09:36:13;;;;;;;24.38;6.50;;;21.50;99.90;;;;;;6338854;22;20022;-79
2021/04/28 09:38:56;;;;;;;13.35;5.43;;;21.70;99.90;;;;;;6338921;22;20044;-82
2021/04/28 09:41:30;;;;;;;21.48;5.70;;;21.70;99.90;;;;;;6338883;22;20003;-77
2021/04/28 09:43:56;;;;;;;26.27;6.07;;;21.80;99.90;;;;;;6311442;22;20010;-83
2021/04/28 09:46:21;;;;;;;19.87;5.27;;;21.90;99.90;;;;;;6339075;22;20006;-83
2021/04/28 09:49:09;;;;;;;24.10;5.93;;;21.70;99.90;;;;;;6338760;22;20268;-78
2021/04/28 09:51:38;;;;;;;19.08;6.22;;;21.70;99.90;;;;;;6338802;22;20267;-83
2021/04/28 09:54:15;;;;;;;16.70;6.35;;;21.90;99.90;;;;;;6338596;22;20002;-80
2021/04/28 09:56:43;;;;;;;22.02;5.70;;;22.20;99.90;;;;;;6338615;22;20011;-77
2021/04/28 09:59:09;;;;;;;22.38;5.18;;;22.20;99.90;;;;;;6338423;22;20015;-77
2021/04/28 10:01:40;;;;;;;20.58;5.88;;;22.30;99.90;;;;;;6338689;22;20014;-80
2021/04/28 10:04:09;;;;;;;21.48;5.35;;;22.40;99.90;;;;;;6338722;22;19999;-78
2021/04/28 10:06:48;;;;;;;29.55;7.35;;;22.40;99.90;;;;;;6338569;22;20064;-83
2021/04/28 10:09:31;;;;;;;23.92;5.47;;;22.40;99.90;;;;;;6338709;22;20009;-84
2021/04/28 10:11:59;;;;;;;19.05;6.13;;;22.20;99.90;;;;;;6338703;22;20003;-83
2021/04/28 10:14:26;;;;;;;17.75;5.35;;;22.00;99.90;;;;;;6338620;22;20003;-83
2021/04/28 10:16:54;;;;;;;27.17;6.88;;;21.80;99.90;;;;;;6338473;22;20094;-83
2021/04/28 10:19:23;;;;;;;17.83;5.50;;;21.60;99.90;;;;;;6338459;22;20056;-77
2021/04/28 10:21:50;;;;;;;16.63;4.97;;;21.60;99.90;;;;;;6338548;22;20436;-83
2021/04/28 10:24:18;;;;;;;21.02;6.53;;;21.50;99.90;;;;;;6338220;22;20040;-77
2021/04/28 10:26:47;;;;;;;22.33;6.85;;;21.50;99.90;;;;;;6338807;22;20033;-83
2021/04/28 10:29:18;;;;;;;23.95;6.28;;;21.60;99.90;;;;;;6310846;22;20011;-78
2021/04/28 10:31:50;;;;;;;11.23;4.95;;;22.10;99.90;;;;;;6338382;22;20425;-79
2021/04/28 10:34:24;;;;;;;28.25;8.50;;;22.60;99.90;;;;;;6338476;22;20007;-77
2021/04/28 10:36:53;;;;;;;28.40;4.65;;;22.70;99.90;;;;;;6338421;22;20085;-78
2021/04/28 10:39:24;;;;;;;19.45;5.90;;;22.90;99.90;;;;;;6310748;22;20006;-83
2021/04/28 10:41:52;;;;;;;27.88;6.13;;;23.00;99.90;;;;;;6338406;22;20014;-83
2021/04/28 10:44:31;;;;;;;17.80;5.75;;;23.10;99.90;;;;;;6347903;22;20010;-79
2021/04/28 10:47:42;;;;;;;22.67;5.15;;;23.00;99.90;;;;;;6338552;22;20006;-84
2021/04/28 10:50:22;;;;;;;23.05;6.45;;;22.80;99.90;;;;;;6331298;22;20445;-83
2021/04/28 10:52:59;;;;;;;22.42;5.53;;;22.40;99.90;;;;;;6338922;22;20003;-82
2021/04/28 10:55:38;;;;;;;17.02;6.47;;;22.10;99.90;;;;;;6338157;22;20063;-83
2021/04/28 10:58:30;;;;;;;21.52;5.28;;;21.90;99.90;;;;;;6338262;22;20025;-80
2021/04/28 11:01:03;;;;;;;32.83;7.07;;;21.90;99.90;;;;;;6338034;22;20007;-81
2021/04/28 11:03:32;;;;;;;26.92;5.80;;;22.00;99.90;;;;;;6338257;22;19999;-83
2021/04/28 11:06:20;;;;;;;25.90;5.93;;;22.40;99.90;;;;;;6338496;22;20006;-81
2021/04/28 11:08:49;;;;;;;17.25;5.70;;;22.60;99.90;;;;;;6338250;22;20330;-81
2021/04/28 11:11:30;;;;;;;21.33;6.22;;;22.60;99.90;;;;;;6338475;22;20068;-81
2021/04/28 11:14:11;;;;;;;23.17;5.55;;;22.70;99.90;;;;;;6338359;22;20453;-81
2021/04/28 11:16:41;;;;;;;31.55;5.80;;;22.60;99.90;;;;;;6338316;22;20093;-83
2021/04/28 11:19:21;;;;;;;18.33;6.18;;;22.70;99.90;;;;;;6338316;22;19998;-84
2021/04/28 11:22:03;;;;;;;20.88;4.90;;;23.00;99.90;;;;;;6338197;22;20007;-83
2021/04/28 11:25:07;;;;;;;19.85;5.05;;;23.30;99.90;;;;;;6338100;22;20003;-83
2021/04/28 11:27:43;;;;;;;19.80;5.00;;;23.60;99.90;;;;;;6338271;22;19999;-83
2021/04/28 11:30:24;;;;;;;21.83;4.97;;;23.80;99.90;;;;;;6338306;22;19999;-78
2021/04/28 11:33:17;;;;;;;30.02;6.75;;;24.00;99.90;;;;;;6337872;22;19999;-77
2021/04/28 11:35:52;;;;;;;23.48;6.03;;;24.20;99.90;;;;;;6338774;22;20043;-84
2021/04/28 11:38:20;;;;;;;17.73;5.15;;;24.40;99.90;;;;;;6340067;22;20074;-83
2021/04/28 11:41:01;;;;;;;16.67;5.03;;;24.50;99.90;;;;;;6340143;22;20003;-84
2021/04/28 11:43:32;;;;;;;23.55;6.70;;;24.80;99.90;;;;;;6340103;22;20034;-83
2021/04/28 11:46:05;;;;;;;18.90;5.88;;;24.80;99.90;;;;;;6312508;22;20006;-84
2021/04/28 11:48:32;;;;;;;19.42;5.13;;;24.90;99.90;;;;;;6312349;22;20007;-83
2021/04/28 11:51:05;;;;;;;19.35;5.47;;;25.20;99.90;;;;;;6339827;22;19999;-84
2021/04/28 11:53:31;;;;;;;23.30;4.95;;;25.40;99.90;;;;;;6340036;22;20002;-80
2021/04/28 11:55:58;;;;;;;23.00;5.57;;;25.60;99.90;;;;;;6339869;22;20156;-82
2021/04/28 11:58:30;;;;;;;20.30;5.80;;;25.70;99.90;;;;;;6350828;22;20009;-79
2021/04/28 12:01:07;;;;;;;33.40;6.75;;;25.70;99.90;;;;;;6314403;22;20375;-84
2021/04/28 12:03:54;;;;;;;23.98;6.47;;;25.90;99.90;;;;;;6339778;22;20459;-81
2021/04/28 12:06:30;;;;;;;22.25;7.47;;;26.00;99.90;;;;;;6340185;22;20323;-80
2021/04/28 12:09:16;;;;;;;19.58;5.57;;;26.10;99.90;;;;;;6339687;22;20056;-83
2021/04/28 12:11:45;;;;;;;22.33;6.03;;;26.00;99.90;;;;;;6339629;22;20003;-79
2021/04/28 12:14:11;;;;;;;26.90;6.03;;;26.10;99.90;;;;;;6339638;22;20533;-83
2021/04/28 12:16:54;;;;;;;16.67;5.47;;;26.10;99.90;;;;;;6339483;22;20010;-83
2021/04/28 12:19:21;;;;;;;34.17;7.90;;;26.10;99.90;;;;;;6312384;22;20011;-81
2021/04/28 12:21:56;;;;;;;21.45;5.95;;;26.30;99.90;;;;;;6339561;22;20762;-79
2021/04/28 12:24:55;;;;;;;28.88;6.80;;;26.50;99.90;;;;;;6339499;22;20397;-84
2021/04/28 12:27:28;;;;;;;26.27;6.57;;;26.30;99.90;;;;;;6339511;22;20002;-83
2021/04/28 12:30:15;;;;;;;25.38;6.88;;;26.40;99.90;;;;;;6339556;22;20977;-82
2021/04/28 12:32:45;;;;;;;28.52;5.93;;;26.40;99.90;;;;;;6339464;22;20023;-82
2021/04/28 12:35:24;;;;;;;28.95;6.30;;;26.20;99.90;;;;;;6339276;22;20006;-82
2021/04/28 12:38:05;;;;;;;28.02;6.15;;;26.30;99.80;;;;;;6339626;22;20498;-84
2021/04/28 12:40:51;;;;;;;28.17;6.18;;;26.50;99.90;;;;;;6312287;22;20003;-83
2021/04/28 12:43:24;;;;;;;29.95;6.72;;;26.60;99.80;;;;;;6339742;22;20421;-79
2021/04/28 12:45:50;;;;;;;;;;;26.60;99.50;;;;;;6312799;22;20010;-83
2021/04/28 12:48:21;;;;;;;25.55;6.25;;;26.80;99.40;;;;;;6339071;22;19906;-81
2021/04/28 12:50:50;;;;;;;24.50;7.47;;;26.80;99.10;;;;;;6339454;22;19999;-82
2021/04/28 12:53:18;;;;;;;27.48;7.13;;;26.80;99.00;;;;;;6339435;22;20022;-81
2021/04/28 12:55:51;;;;;;;22.33;6.70;;;27.00;99.10;;;;;;6339420;22;20042;-82
2021/04/28 12:58:22;;;;;;;26.70;6.82;;;27.10;99.30;;;;;;6338947;22;20030;-80